createdAt,value
2023-04-18T00:00:39.867Z,85.80
2023-04-18T00:03:11.362Z,84.70
2023-04-18T00:05:42.265Z,85.30
2023-04-18T00:08:15.057Z,83.70
2023-04-18T00:10:45.403Z,84.60
2023-04-18T00:13:15.741Z,82.70
2023-04-18T00:15:47.360Z,82.30
2023-04-18T00:18:19.285Z,82.40
2023-04-18T00:20:50.176Z,80.90
2023-04-18T00:23:23.199Z,80.90
2023-04-18T00:25:53.993Z,81.40
2023-04-18T00:28:24.776Z,81.20
2023-04-18T00:30:55.525Z,80.50
2023-04-18T00:33:27.412Z,78.30
2023-04-18T00:35:59.464Z,77.70
2023-04-18T00:38:30.346Z,79.10
2023-04-18T00:41:01.194Z,79.40
2023-04-18T00:43:32.427Z,79.10
2023-04-18T00:46:04.381Z,77.80
2023-04-18T00:48:37.126Z,76.70
2023-04-18T00:51:09.956Z,77.00
2023-04-18T00:53:40.825Z,76.80
2023-04-18T00:56:11.751Z,76.90
2023-04-18T00:58:42.657Z,76.10
2023-04-18T01:01:13.370Z,75.20
2023-04-18T01:03:44.370Z,75.80
2023-04-18T01:06:15.443Z,77.00
2023-04-18T01:08:47.216Z,76.20
2023-04-18T01:11:17.901Z,75.10
2023-04-18T01:14:03.135Z,74.00
2023-04-18T01:16:36.831Z,75.00
2023-04-18T01:19:08.710Z,73.90
2023-04-18T01:21:39.599Z,73.10
2023-04-18T01:24:15.921Z,72.20
2023-04-18T01:26:51.720Z,72.20
2023-04-18T01:29:22.421Z,72.40
2023-04-18T01:31:52.821Z,71.20
2023-04-18T01:34:23.460Z,69.70
2023-04-18T01:36:54.367Z,69.50
2023-04-18T01:39:25.228Z,69.80
2023-04-18T01:41:55.885Z,69.30
2023-04-18T01:44:26.402Z,70.40
2023-04-18T01:46:57.129Z,69.10
2023-04-18T01:49:27.462Z,68.00
2023-04-18T01:51:57.846Z,68.00
2023-04-18T01:54:28.461Z,67.00
2023-04-18T01:57:00.050Z,64.80
2023-04-18T01:59:34.720Z,66.50
2023-04-18T02:02:05.495Z,66.70
2023-04-18T02:04:35.767Z,64.90
2023-04-18T02:07:06.457Z,66.10
2023-04-18T02:09:36.667Z,63.90
2023-04-18T02:12:07.331Z,66.20
2023-04-18T02:14:38.857Z,65.00
2023-04-18T02:17:09.516Z,65.70
2023-04-18T02:19:39.947Z,64.50
2023-04-18T02:22:10.582Z,64.50
2023-04-18T02:24:40.824Z,64.40
2023-04-18T02:27:12.918Z,64.20
2023-04-18T02:29:43.518Z,62.80
2023-04-18T02:32:13.791Z,62.50
2023-04-18T02:34:44.029Z,62.40
2023-04-18T02:37:14.380Z,64.10
2023-04-18T02:39:44.641Z,62.70
2023-04-18T02:42:15.082Z,60.90
2023-04-18T02:44:45.313Z,60.60
2023-04-18T02:47:16.350Z,61.60
2023-04-18T02:49:46.595Z,62.00
2023-04-18T02:52:17.888Z,60.30
2023-04-18T02:54:48.150Z,60.10
2023-04-18T02:57:18.852Z,60.80
2023-04-18T02:59:49.049Z,62.30
2023-04-18T03:02:21.224Z,62.10
2023-04-18T03:04:51.647Z,62.50
2023-04-18T03:07:25.978Z,61.70
2023-04-18T03:09:56.712Z,61.10
2023-04-18T03:12:30.945Z,60.30
2023-04-18T03:15:01.310Z,60.60
2023-04-18T03:17:32.025Z,60.50
2023-04-18T03:20:02.605Z,60.20
2023-04-18T03:22:33.321Z,60.30
2023-04-18T03:25:03.854Z,60.80
2023-04-18T03:27:34.947Z,61.70
2023-04-18T03:30:05.570Z,61.20
2023-04-18T03:32:37.368Z,60.50
2023-04-18T03:35:08.325Z,60.90
2023-04-18T03:37:39.080Z,60.80
2023-04-18T03:40:10.098Z,60.10
2023-04-18T03:42:40.744Z,61.70
2023-04-18T03:45:12.030Z,61.00
2023-04-18T03:47:42.514Z,59.70
2023-04-18T03:50:13.128Z,60.40
2023-04-18T03:52:44.574Z,61.00
2023-04-18T03:55:18.177Z,60.60
2023-04-18T03:57:49.607Z,58.60
2023-04-18T04:00:20.056Z,58.40
2023-04-18T04:02:51.681Z,57.10
2023-04-18T04:05:22.176Z,59.10
2023-04-18T04:07:52.586Z,59.30
2023-04-18T04:10:22.916Z,59.80
2023-04-18T04:12:53.618Z,60.10
2023-04-18T04:15:25.494Z,58.30
2023-04-18T04:17:56.588Z,59.10
2023-04-18T04:20:28.183Z,59.80
2023-04-18T04:23:00.982Z,59.70
2023-04-18T04:25:31.519Z,59.70
2023-04-18T04:28:04.961Z,60.30
2023-04-18T04:30:35.828Z,59.50
2023-04-18T04:33:07.008Z,59.50
2023-04-18T04:35:38.845Z,59.50
2023-04-18T04:38:10.597Z,60.40
2023-04-18T04:40:41.013Z,61.10
2023-04-18T04:43:16.969Z,60.50
2023-04-18T04:45:47.585Z,62.10
2023-04-18T04:48:18.857Z,61.00
2023-04-18T04:50:56.887Z,59.80
2023-04-18T04:53:35.413Z,60.70
2023-04-18T04:56:11.206Z,59.70
2023-04-18T04:58:43.934Z,58.20
2023-04-18T05:01:15.327Z,59.10
2023-04-18T05:04:09.964Z,60.50
2023-04-18T05:06:41.096Z,61.60
2023-04-18T05:09:11.904Z,60.10
2023-04-18T05:11:42.245Z,58.70
2023-04-18T05:14:20.009Z,58.10
2023-04-18T05:16:50.421Z,58.70
2023-04-18T05:19:21.253Z,58.00
2023-04-18T05:21:51.427Z,58.50
2023-04-18T05:24:21.827Z,59.80
2023-04-18T05:26:52.936Z,56.90
2023-04-18T05:29:23.914Z,54.60
2023-04-18T05:31:56.222Z,55.80
2023-04-18T05:34:27.799Z,57.30
2023-04-18T05:37:04.124Z,57.30
2023-04-18T05:42:18.627Z,57.60
2023-04-18T05:44:50.436Z,58.00
2023-04-18T05:47:21.230Z,56.70
2023-04-18T05:49:52.242Z,56.70
2023-04-18T05:52:23.298Z,59.50
2023-04-18T05:54:56.217Z,58.40
2023-04-18T05:57:35.463Z,57.30
2023-04-18T06:00:09.127Z,57.80
2023-04-18T06:02:40.976Z,58.00
2023-04-18T06:05:22.178Z,58.90
2023-04-18T06:07:54.068Z,59.00
2023-04-18T06:10:25.966Z,58.60
2023-04-18T06:12:56.879Z,57.60
2023-04-18T06:15:28.852Z,56.80
2023-04-18T06:17:59.080Z,57.30
2023-04-18T06:20:30.062Z,57.80
2023-04-18T06:23:00.373Z,56.30
2023-04-18T06:25:32.478Z,56.50
2023-04-18T06:28:03.287Z,58.70
2023-04-18T06:30:42.443Z,57.80
2023-04-18T06:33:17.491Z,57.40
2023-04-18T06:35:49.926Z,57.80
2023-04-18T06:38:30.488Z,58.00
2023-04-18T06:41:01.496Z,58.60
2023-04-18T06:43:38.013Z,60.80
2023-04-18T06:46:08.704Z,60.50
2023-04-18T06:51:27.796Z,60.20
2023-04-18T06:54:05.383Z,61.60
2023-04-18T06:56:39.280Z,61.90
2023-04-18T06:59:14.343Z,62.50
2023-04-18T07:01:45.647Z,61.90
2023-04-18T07:04:21.157Z,62.60
2023-04-18T07:06:52.071Z,63.50
2023-04-18T07:09:23.185Z,64.10
2023-04-18T07:11:54.796Z,64.30
2023-04-18T07:14:28.482Z,65.00
2023-04-18T07:16:59.814Z,66.50
2023-04-18T07:19:30.604Z,65.50
2023-04-18T07:22:03.916Z,65.80
2023-04-18T07:24:34.598Z,66.30
2023-04-18T07:27:06.330Z,67.10
2023-04-18T07:29:37.139Z,67.10
2023-04-18T07:32:08.345Z,67.80
2023-04-18T07:34:39.835Z,68.70
2023-04-18T07:37:11.632Z,69.50
2023-04-18T07:39:44.817Z,70.00
2023-04-18T07:42:16.607Z,70.50
2023-04-18T07:44:47.734Z,70.90
2023-04-18T07:47:22.441Z,71.50
2023-04-18T07:49:57.087Z,72.20
2023-04-18T07:52:31.998Z,72.20
2023-04-18T07:55:05.716Z,72.90
2023-04-18T07:57:37.057Z,74.60
2023-04-18T08:00:13.974Z,75.00
2023-04-18T08:02:46.081Z,74.70
2023-04-18T08:05:19.224Z,76.10
2023-04-18T08:07:49.931Z,76.60
2023-04-18T08:10:23.185Z,75.80
2023-04-18T08:12:56.293Z,76.50
2023-04-18T08:15:28.847Z,76.90
2023-04-18T08:17:59.753Z,78.30
2023-04-18T08:20:31.477Z,78.50
2023-04-18T08:23:08.693Z,78.70
2023-04-18T08:25:43.841Z,79.40
2023-04-18T08:28:15.494Z,79.30
2023-04-18T08:30:50.819Z,79.50
2023-04-18T08:33:26.954Z,79.40
2023-04-18T08:35:58.024Z,80.80
2023-04-18T08:38:30.938Z,80.80
2023-04-18T08:41:01.679Z,80.70
2023-04-18T08:43:33.424Z,81.00
2023-04-18T08:46:05.069Z,81.10
2023-04-18T08:48:36.090Z,81.40
2023-04-18T08:51:09.533Z,82.30
2023-04-18T08:53:41.398Z,81.80
2023-04-18T08:56:17.848Z,81.60
2023-04-18T08:58:48.757Z,82.30
2023-04-18T09:01:20.072Z,82.50
2023-04-18T09:03:52.024Z,83.20
2023-04-18T09:06:25.168Z,83.60
2023-04-18T09:09:01.548Z,83.70
2023-04-18T09:11:34.501Z,83.40
2023-04-18T09:14:05.632Z,83.60
2023-04-18T09:16:53.854Z,84.00
2023-04-18T09:19:28.546Z,84.10
2023-04-18T09:22:10.062Z,84.40
2023-04-18T09:24:44.383Z,85.00
2023-04-18T09:27:18.779Z,85.80
2023-04-18T09:29:58.524Z,85.60
2023-04-18T09:32:31.421Z,85.50
2023-04-18T09:35:07.412Z,86.10
2023-04-18T09:37:43.590Z,86.00
2023-04-18T09:40:23.874Z,86.10
2023-04-18T09:42:59.498Z,86.50
2023-04-18T09:45:32.155Z,86.70
2023-04-18T09:48:03.193Z,87.40
2023-04-18T09:50:36.303Z,88.20
2023-04-18T09:53:08.449Z,89.00
2023-04-18T09:55:39.182Z,87.60
2023-04-18T09:58:12.464Z,87.20
2023-04-18T10:00:46.800Z,87.40
2023-04-18T10:03:20.153Z,87.90
2023-04-18T10:05:51.265Z,87.60
2023-04-18T10:08:37.239Z,88.60
2023-04-18T10:11:09.208Z,88.50
2023-04-18T10:13:44.930Z,88.40
2023-04-18T10:16:26.321Z,88.50
2023-04-18T10:18:58.727Z,89.00
2023-04-18T10:24:51.051Z,88.50
2023-04-18T10:27:46.267Z,88.50
2023-04-18T10:30:18.178Z,88.90
2023-04-18T10:32:57.623Z,89.70
2023-04-18T10:35:32.264Z,90.00
2023-04-18T10:38:05.621Z,89.30
2023-04-18T10:40:37.721Z,89.20
2023-04-18T10:43:21.620Z,89.60
2023-04-18T10:46:27.955Z,89.50
2023-04-18T10:49:27.359Z,89.50
2023-04-18T10:52:05.735Z,90.10
2023-04-18T10:54:57.705Z,90.10
2023-04-18T10:57:53.903Z,90.10
2023-04-18T11:00:27.464Z,90.10
2023-04-18T11:03:01.100Z,89.80
2023-04-18T11:05:32.629Z,89.30
2023-04-18T11:08:04.648Z,89.20
2023-04-18T11:10:35.352Z,88.90
2023-04-18T11:13:12.919Z,89.00
2023-04-18T11:15:44.671Z,89.00
2023-04-18T11:18:15.233Z,89.00
2023-04-18T11:20:54.664Z,89.10
2023-04-18T11:23:27.019Z,89.20
2023-04-18T11:25:58.763Z,89.50
2023-04-18T11:28:30.721Z,89.90
2023-04-18T11:31:04.905Z,90.20
2023-04-18T11:33:35.987Z,90.30
2023-04-18T11:36:07.729Z,90.50
2023-04-18T11:38:39.853Z,90.40
2023-04-18T11:41:16.714Z,90.30
2023-04-18T11:43:47.588Z,90.30
2023-04-18T11:46:18.556Z,90.40
2023-04-18T11:48:49.897Z,90.70
2023-04-18T11:51:38.458Z,90.60
2023-04-18T11:54:29.373Z,90.70
2023-04-18T11:57:00.503Z,90.80
2023-04-18T11:59:31.708Z,91.20
2023-04-18T12:02:16.174Z,91.40
2023-04-18T12:05:18.404Z,91.10
2023-04-18T12:07:49.544Z,91.00
2023-04-18T12:10:32.390Z,91.10
2023-04-18T12:13:04.800Z,91.40
2023-04-18T12:15:36.133Z,91.10
2023-04-18T12:18:09.784Z,91.60
2023-04-18T12:20:41.315Z,91.50
2023-04-18T12:23:11.686Z,91.40
2023-04-18T12:25:42.144Z,91.60
2023-04-18T12:28:20.250Z,91.80
2023-04-18T12:30:50.572Z,91.80
2023-04-18T12:33:21.372Z,91.80
2023-04-18T12:35:51.999Z,91.60
2023-04-18T12:38:29.715Z,91.70
2023-04-18T12:41:00.912Z,91.70
2023-04-18T12:43:31.403Z,91.70
2023-04-18T12:46:03.518Z,91.60
2023-04-18T12:48:33.935Z,91.50
2023-04-18T12:51:04.545Z,91.50
2023-04-18T12:53:35.330Z,92.10
2023-04-18T12:56:06.181Z,91.70
2023-04-18T12:58:37.784Z,91.70
2023-04-18T13:01:09.517Z,91.70
2023-04-18T13:03:40.128Z,92.10
2023-04-18T13:06:11.181Z,91.70
2023-04-18T13:08:41.430Z,92.00
2023-04-18T13:11:12.229Z,91.70
2023-04-18T13:13:42.941Z,91.70
2023-04-18T13:16:14.804Z,91.60
2023-04-18T13:18:45.869Z,91.90
2023-04-18T13:21:16.562Z,92.00
2023-04-18T13:23:47.389Z,92.30
2023-04-18T13:26:18.195Z,92.00
2023-04-18T13:28:48.382Z,92.10
2023-04-18T13:31:19.011Z,92.00
2023-04-18T13:33:49.304Z,92.30
2023-04-18T13:36:19.731Z,92.20
2023-04-18T13:38:50.873Z,92.20
2023-04-18T13:41:21.203Z,92.40
2023-04-18T13:43:51.539Z,92.30
2023-04-18T13:46:22.558Z,92.60
2023-04-18T13:48:52.975Z,92.50
2023-04-18T13:51:23.257Z,92.60
2023-04-18T13:53:54.273Z,92.30
2023-04-18T13:56:24.590Z,92.10
2023-04-18T13:58:55.176Z,92.20
2023-04-18T14:01:25.923Z,92.40
2023-04-18T14:03:56.465Z,92.00
2023-04-18T14:06:29.349Z,92.00
2023-04-18T14:09:00.870Z,92.10
2023-04-18T14:11:31.190Z,91.90
2023-04-18T14:14:01.508Z,92.10
2023-04-18T14:16:33.748Z,92.10
2023-04-18T14:19:04.150Z,92.20
2023-04-18T14:21:34.483Z,92.10
2023-04-18T14:24:06.110Z,92.00
2023-04-18T14:26:37.434Z,92.20
2023-04-18T14:29:08.327Z,92.30
2023-04-18T14:31:39.070Z,92.70
2023-04-18T14:34:11.696Z,92.70
2023-04-18T14:36:43.940Z,92.60
2023-04-18T14:39:15.412Z,92.70
2023-04-18T14:41:47.398Z,92.80
2023-04-18T14:44:19.351Z,92.80
2023-04-18T14:46:50.081Z,93.10
2023-04-18T14:49:20.400Z,92.70
2023-04-18T14:51:50.671Z,92.90
2023-04-18T14:54:21.419Z,93.00
2023-04-18T14:56:51.697Z,92.70
2023-04-18T14:59:21.910Z,92.70
2023-04-18T15:01:52.556Z,92.70
2023-04-18T15:04:23.237Z,92.60
2023-04-18T15:06:53.662Z,92.60
2023-04-18T15:09:24.453Z,93.30
2023-04-18T15:11:55.942Z,92.30
2023-04-18T15:14:26.230Z,92.60
2023-04-18T15:16:56.545Z,92.60
2023-04-18T15:19:26.874Z,92.50
2023-04-18T15:21:57.289Z,92.30
2023-04-18T15:24:27.611Z,92.40
2023-04-18T15:26:59.103Z,92.70
2023-04-18T15:29:29.313Z,92.60
2023-04-18T15:31:59.947Z,92.90
2023-04-18T15:34:30.197Z,93.00
2023-04-18T15:37:00.369Z,92.80
2023-04-18T15:39:30.717Z,92.50
2023-04-18T15:42:00.966Z,92.70
2023-04-18T15:44:32.440Z,92.70
2023-04-18T15:47:03.404Z,92.90
2023-04-18T15:49:34.155Z,92.70
2023-04-18T15:52:05.963Z,93.00
2023-04-18T15:54:37.392Z,93.40
2023-04-18T15:57:07.858Z,93.00
2023-04-18T15:59:39.101Z,92.90
2023-04-18T16:02:10.802Z,92.60
2023-04-18T16:04:41.192Z,93.00
2023-04-18T16:07:11.540Z,92.70
2023-04-18T16:09:41.742Z,93.00
2023-04-18T16:12:12.000Z,92.70
2023-04-18T16:14:42.787Z,92.70
2023-04-18T16:17:14.167Z,92.90
2023-04-18T16:19:44.698Z,92.70
2023-04-18T16:22:16.779Z,92.60
2023-04-18T16:24:47.216Z,92.60
2023-04-18T16:27:17.918Z,92.50
2023-04-18T16:29:49.328Z,92.90
2023-04-18T16:32:19.546Z,93.20
2023-04-18T16:34:50.171Z,92.50
2023-04-18T16:37:20.424Z,92.80
2023-04-18T16:39:50.747Z,92.50
2023-04-18T16:42:20.958Z,92.40
2023-04-18T16:44:52.643Z,92.50
2023-04-18T16:47:22.914Z,92.50
2023-04-18T16:49:54.288Z,92.80
2023-04-18T16:52:25.106Z,92.80
2023-04-18T16:54:56.438Z,92.50
2023-04-18T16:57:27.147Z,92.40
2023-04-18T16:59:57.648Z,92.30
2023-04-18T17:02:28.336Z,93.00
2023-04-18T17:04:58.754Z,92.30
2023-04-18T17:07:29.010Z,92.20
2023-04-18T17:09:59.293Z,92.90
2023-04-18T17:12:29.556Z,92.30
2023-04-18T17:15:00.247Z,92.70
2023-04-18T17:17:31.213Z,92.70
2023-04-18T17:20:02.198Z,93.00
2023-04-18T17:22:33.682Z,93.00
2023-04-18T17:25:04.710Z,92.70
2023-04-18T17:27:35.046Z,92.40
2023-04-18T17:30:05.386Z,93.00
2023-04-18T17:32:35.732Z,93.20
2023-04-18T17:35:08.083Z,92.50
2023-04-18T17:37:38.624Z,92.70
2023-04-18T17:40:11.454Z,92.70
2023-04-18T17:42:41.964Z,92.60
2023-04-18T17:45:13.127Z,92.50
2023-04-18T17:47:44.610Z,92.70
2023-04-18T17:50:15.467Z,92.70
2023-04-18T17:52:46.861Z,93.30
2023-04-18T17:55:17.522Z,92.40
2023-04-18T17:57:47.905Z,92.40
2023-04-18T18:00:19.086Z,92.40
2023-04-18T18:02:49.436Z,93.00
2023-04-18T18:05:20.170Z,92.70
2023-04-18T18:07:50.587Z,93.30
2023-04-18T18:10:22.681Z,92.90
2023-04-18T18:12:53.144Z,92.70
2023-04-18T18:15:24.054Z,92.80
2023-04-18T18:17:55.069Z,92.70
2023-04-18T18:20:25.819Z,92.70
2023-04-18T18:22:56.769Z,92.80
2023-04-18T18:25:28.085Z,92.60
2023-04-18T18:27:58.385Z,92.60
2023-04-18T18:30:29.082Z,92.60
2023-04-18T18:33:00.292Z,92.60
2023-04-18T18:35:31.011Z,92.60
2023-04-18T18:38:01.240Z,93.00
2023-04-18T18:40:31.554Z,93.30
2023-04-18T18:43:02.295Z,93.20
2023-04-18T18:45:33.048Z,93.40
2023-04-18T18:48:05.932Z,92.60
2023-04-18T18:50:53.212Z,92.60
2023-04-18T18:53:25.328Z,93.80
2023-04-18T18:55:57.163Z,93.10
2023-04-18T18:58:29.040Z,92.50
2023-04-18T19:01:01.160Z,92.50
2023-04-18T19:03:31.975Z,93.00
2023-04-18T19:06:06.211Z,93.10
2023-04-18T19:08:48.431Z,92.70
2023-04-18T19:11:20.083Z,92.60
2023-04-18T19:13:54.326Z,92.90
2023-04-18T19:16:26.531Z,92.50
2023-04-18T19:18:57.545Z,92.50
2023-04-18T19:21:29.603Z,92.80
2023-04-18T19:24:00.670Z,93.10
2023-04-18T19:26:30.979Z,93.20
2023-04-18T19:29:01.693Z,93.10
2023-04-18T19:31:32.105Z,92.70
2023-04-18T19:34:02.472Z,93.40
2023-04-18T19:36:33.672Z,93.20
2023-04-18T19:39:03.944Z,93.60
2023-04-18T19:41:34.147Z,93.50
2023-04-18T19:44:04.338Z,92.90
2023-04-18T19:46:34.843Z,92.60
2023-04-18T19:49:05.086Z,92.70
2023-04-18T19:51:35.450Z,93.10
2023-04-18T19:54:06.865Z,92.80
2023-04-18T19:56:37.217Z,92.70
2023-04-18T19:59:07.824Z,92.60
2023-04-18T20:01:38.761Z,93.30
2023-04-18T20:04:10.492Z,92.70
2023-04-18T20:06:40.859Z,92.40
2023-04-18T20:09:17.085Z,93.20
2023-04-18T20:11:48.690Z,92.60
2023-04-18T20:14:20.109Z,92.60
2023-04-18T20:16:51.749Z,93.30
2023-04-18T20:19:22.103Z,92.60
2023-04-18T20:21:52.710Z,93.20
2023-04-18T20:24:29.633Z,93.60
2023-04-18T20:27:01.629Z,93.50
2023-04-18T20:29:32.826Z,93.00
2023-04-18T20:32:03.815Z,93.30
2023-04-18T20:34:34.263Z,93.20
2023-04-18T20:37:05.397Z,92.70
2023-04-18T20:39:36.704Z,93.30
2023-04-18T20:42:08.042Z,92.70
2023-04-18T20:44:38.736Z,92.90
2023-04-18T20:47:09.681Z,93.30
2023-04-18T20:49:41.703Z,92.70
2023-04-18T20:52:12.426Z,92.60
2023-04-18T20:54:45.003Z,92.90
2023-04-18T20:57:15.654Z,93.40
2023-04-18T20:59:47.568Z,92.80
2023-04-18T21:02:18.358Z,93.00
2023-04-18T21:04:50.065Z,93.10
2023-04-18T21:07:22.410Z,93.40
2023-04-18T21:09:53.273Z,93.20
2023-04-18T21:12:24.730Z,93.00
2023-04-18T21:14:56.466Z,93.30
2023-04-18T21:17:27.888Z,93.40
2023-04-18T21:19:58.745Z,93.50
2023-04-18T21:22:31.057Z,93.70
2023-04-18T21:25:01.887Z,93.80
2023-04-18T21:27:34.407Z,93.90
2023-04-18T21:30:07.731Z,94.50
2023-04-18T21:32:38.513Z,93.80
2023-04-18T21:35:09.902Z,93.80
2023-04-18T21:37:41.516Z,93.90
2023-04-18T21:40:13.030Z,94.10
2023-04-18T21:42:43.868Z,94.10
2023-04-18T21:45:15.073Z,94.10
2023-04-18T21:47:47.893Z,94.20
2023-04-18T21:50:18.691Z,94.00
2023-04-18T21:52:49.439Z,94.00
2023-04-18T21:55:22.057Z,94.10
2023-04-18T21:57:52.747Z,94.20
2023-04-18T22:00:23.542Z,94.40
2023-04-18T22:02:54.895Z,95.10
2023-04-18T22:05:27.264Z,94.80
2023-04-18T22:08:00.310Z,94.70
2023-04-18T22:10:31.256Z,94.90
2023-04-18T22:13:03.981Z,94.90
2023-04-18T22:15:37.158Z,94.60
2023-04-18T22:18:11.534Z,94.60
2023-04-18T22:20:43.187Z,94.70
2023-04-18T22:23:14.334Z,94.40
2023-04-18T22:25:45.132Z,94.20
2023-04-18T22:28:15.986Z,94.10
2023-04-18T22:30:47.419Z,94.40
2023-04-18T22:33:19.049Z,94.30
2023-04-18T22:35:50.449Z,94.10
2023-04-18T22:38:41.121Z,94.20
2023-04-18T22:41:12.100Z,94.30
2023-04-18T22:43:42.893Z,94.50
2023-04-18T22:46:13.400Z,94.50
2023-04-18T22:48:44.236Z,94.40
2023-04-18T22:51:17.515Z,94.60
2023-04-18T22:53:49.902Z,94.80
2023-04-18T22:56:21.455Z,95.00
2023-04-18T22:58:52.088Z,94.90
2023-04-18T23:01:22.783Z,94.80
2023-04-18T23:03:53.640Z,94.80
2023-04-18T23:06:25.872Z,95.00
2023-04-18T23:08:57.698Z,94.60
2023-04-18T23:11:28.589Z,94.70
2023-04-18T23:13:59.192Z,94.70
2023-04-18T23:16:30.457Z,94.20
2023-04-18T23:19:02.015Z,94.20
2023-04-18T23:21:33.944Z,94.20
2023-04-18T23:24:04.839Z,93.80
2023-04-18T23:26:35.880Z,93.70
2023-04-18T23:29:07.035Z,93.40
2023-04-18T23:31:44.905Z,93.50
2023-04-18T23:34:16.008Z,93.50
2023-04-18T23:36:47.133Z,93.20
2023-04-18T23:39:20.474Z,92.90
2023-04-18T23:41:53.612Z,92.80
2023-04-18T23:44:24.070Z,92.60
2023-04-18T23:46:56.988Z,92.30
2023-04-18T23:49:29.288Z,92.20
2023-04-18T23:51:59.627Z,92.10
2023-04-18T23:54:40.956Z,91.80
2023-04-18T23:57:12.124Z,90.90
2023-04-18T23:59:44.191Z,91.30
